Time;durP1;ratioP1;P1;durP2;ratioP2;P2;SDS_P1;SDS_P2;PMS_P1;PMS_P2;Temp;Humidity;BMP_temperature;BMP_pressure;BME280_temperature;BME280_humidity;BME280_pressure;Samples;Min_cycle;Max_cycle;Signal;HPM_P1;HPM_P2
2024/02/16 00:01:55;;;;;;;2.10;1.42;;;;;;;16.08;50.96;96959.03;5035742;28;20046;-85
2024/02/16 00:04:21;;;;;;;2.08;1.35;;;;;;;16.08;50.76;96956.41;5018079;28;20041;-79
2024/02/16 00:06:47;;;;;;;2.35;1.05;;;;;;;16.04;50.80;96950.16;5000686;28;20073;-79
2024/02/16 00:09:13;;;;;;;2.17;1.20;;;;;;;16.09;51.13;96956.13;4937261;28;20092;-79
2024/02/16 00:11:38;;;;;;;1.70;1.40;;;;;;;16.10;50.15;96956.91;4941372;28;20034;-79
2024/02/16 00:14:03;;;;;;;1.83;1.20;;;;;;;16.09;50.79;96948.25;4944308;28;20035;-82
2024/02/16 00:16:29;;;;;;;1.42;1.10;;;;;;;16.12;51.62;96935.59;4945552;28;20049;-83
2024/02/16 00:18:54;;;;;;;2.80;1.90;;;;;;;16.20;50.73;96938.38;4946694;28;20054;-83
2024/02/16 00:21:19;;;;;;;2.30;1.17;;;;;;;16.24;51.38;96939.34;4929021;28;20419;-84
2024/02/16 00:23:45;;;;;;;3.55;1.20;;;;;;;16.22;51.58;96949.34;4953475;28;20023;-83
2024/02/16 00:26:10;;;;;;;1.98;1.10;;;;;;;16.37;51.82;96953.59;5031816;28;20459;-83
2024/02/16 00:28:35;;;;;;;2.25;1.35;;;;;;;16.32;51.58;96952.91;4965389;28;20031;-83
2024/02/16 00:31:02;;;;;;;1.33;1.10;;;;;;;16.43;51.31;96949.03;4943441;28;21015;-84
2024/02/16 00:33:29;;;;;;;2.58;1.20;;;;;;;16.34;52.03;96945.53;4959063;28;20034;-83
2024/02/16 00:35:54;;;;;;;3.50;1.40;;;;;;;16.41;51.46;96938.81;4967972;28;20024;-83
2024/02/16 00:38:19;;;;;;;2.08;1.20;;;;;;;16.51;51.24;96947.63;4929740;28;20540;-83
2024/02/16 00:40:45;;;;;;;1.73;1.23;;;;;;;16.52;50.90;96947.34;4949605;28;20101;-82
2024/02/16 00:43:10;;;;;;;1.83;1.10;;;;;;;16.34;51.69;96946.28;4954291;28;20031;-82
2024/02/16 00:45:36;;;;;;;2.50;1.50;;;;;;;16.52;51.94;96949.16;4951657;28;20037;-83
2024/02/16 00:48:03;;;;;;;4.03;1.58;;;;;;;16.57;51.81;96951.72;4932231;28;20046;-80
2024/02/16 00:50:28;;;;;;;2.50;1.50;;;;;;;16.57;51.49;96956.97;4934351;28;20466;-82
2024/02/16 00:52:54;;;;;;;2.03;1.30;;;;;;;16.64;51.21;96947.66;4928045;28;20054;-81
2024/02/16 00:55:20;;;;;;;1.50;1.38;;;;;;;16.61;51.27;96952.72;4998470;28;20039;-82
2024/02/16 00:57:45;;;;;;;2.03;1.30;;;;;;;16.62;51.33;96949.00;4944994;28;20478;-84
2024/02/16 01:00:11;;;;;;;2.45;1.60;;;;;;;16.52;50.86;96944.72;4973342;28;20042;-83
2024/02/16 01:02:36;;;;;;;2.47;1.50;;;;;;;16.54;51.72;96937.31;4940501;28;20474;-84
2024/02/16 01:05:02;;;;;;;3.10;1.48;;;;;;;16.63;51.89;96953.97;4937976;28;20049;-82
2024/02/16 01:07:28;;;;;;;2.45;1.50;;;;;;;16.64;51.16;96946.88;4955404;28;20042;-81
2024/02/16 01:09:54;;;;;;;2.45;1.52;;;;;;;16.56;51.29;96956.19;4940840;28;20173;-84
2024/02/16 01:12:20;;;;;;;2.67;1.60;;;;;;;16.48;51.57;96951.59;5045941;28;20039;-84
2024/02/16 01:14:45;;;;;;;2.45;1.50;;;;;;;16.60;51.47;96951.91;4928181;28;20038;-83
2024/02/16 01:17:10;;;;;;;3.22;1.50;;;;;;;16.61;51.07;96948.22;4942084;28;20034;-83
2024/02/16 01:19:36;;;;;;;2.40;1.42;;;;;;;16.57;51.49;96941.19;4966138;28;20066;-83
2024/02/16 01:22:01;;;;;;;2.38;1.67;;;;;;;16.56;52.13;96950.94;4959141;28;20388;-82
2024/02/16 01:24:26;;;;;;;1.60;1.50;;;;;;;16.55;51.85;96949.38;4928912;28;20031;-84
2024/02/16 01:26:52;;;;;;;2.88;1.40;;;;;;;16.51;52.23;96952.88;4951989;28;20514;-84
2024/02/16 01:29:17;;;;;;;4.03;2.28;;;;;;;16.51;51.83;96950.25;4952155;28;20027;-83
2024/02/16 01:31:43;;;;;;;3.00;2.17;;;;;;;16.56;51.79;96948.31;4929546;28;20031;-84
2024/02/16 01:34:08;;;;;;;1.58;1.30;;;;;;;16.56;51.54;96945.69;4956099;28;20050;-82
2024/02/16 01:36:33;;;;;;;2.28;1.88;;;;;;;16.50;51.57;96941.56;4937670;28;20718;-83
2024/02/16 01:38:59;;;;;;;2.95;1.50;;;;;;;16.53;51.52;96933.09;4923720;28;20041;-83
2024/02/16 01:41:24;;;;;;;2.08;1.65;;;;;;;16.52;51.19;96934.19;4956857;28;20039;-83
2024/02/16 01:43:53;;;;;;;2.83;1.83;;;;;;;16.58;51.66;96935.66;4954637;28;20033;-83
2024/02/16 01:46:18;;;;;;;1.83;1.38;;;;;;;16.48;51.54;96943.72;4935616;28;20031;-84
2024/02/16 01:48:43;;;;;;;2.33;1.48;;;;;;;16.53;51.47;96950.75;4943119;28;20034;-82
2024/02/16 01:51:09;;;;;;;1.92;1.48;;;;;;;16.46;51.68;96951.09;4947508;28;20461;-85
2024/02/16 01:53:36;;;;;;;2.67;1.70;;;;;;;16.36;52.24;96946.00;4927776;29;20043;-83
2024/02/16 01:56:02;;;;;;;2.47;1.88;;;;;;;16.39;52.21;96945.44;4963032;28;20073;-83
2024/02/16 01:58:28;;;;;;;1.77;1.67;;;;;;;16.34;51.64;96948.16;4947426;28;20301;-83
2024/02/16 02:00:54;;;;;;;2.70;1.50;;;;;;;16.23;52.14;96953.56;4961933;28;20510;-83
2024/02/16 02:03:20;;;;;;;1.55;1.45;;;;;;;16.30;51.53;96945.31;4961066;28;20049;-83
2024/02/16 02:05:46;;;;;;;2.65;1.50;;;;;;;16.29;51.75;96941.88;4947973;28;20031;-82
2024/02/16 02:08:12;;;;;;;2.70;1.83;;;;;;;16.36;51.75;96946.78;4950488;28;20505;-83
2024/02/16 02:10:37;;;;;;;2.70;1.30;;;;;;;16.32;52.00;96942.41;5029086;28;20066;-84
2024/02/16 02:13:03;;;;;;;2.50;1.35;;;;;;;16.37;52.03;96943.09;4951192;28;20540;-85
2024/02/16 02:15:28;;;;;;;2.05;1.10;;;;;;;16.34;51.95;96953.41;4950558;28;20038;-83
2024/02/16 02:17:54;;;;;;;2.60;1.45;;;;;;;16.32;52.13;96945.03;4936881;29;20036;-87
2024/02/16 02:20:19;;;;;;;1.83;1.45;;;;;;;16.20;51.79;96942.84;5010458;28;20035;-81
2024/02/16 02:22:45;;;;;;;1.40;1.30;;;;;;;16.23;52.42;96943.06;4965841;28;20027;-83
2024/02/16 02:25:10;;;;;;;3.35;1.50;;;;;;;16.27;51.94;96949.28;4950048;28;20365;-78
2024/02/16 02:27:37;;;;;;;2.72;1.27;;;;;;;16.24;51.79;96931.47;4948675;28;20023;-78
2024/02/16 02:30:02;;;;;;;1.80;1.60;;;;;;;16.22;51.92;96930.97;4963912;28;20035;-78
2024/02/16 02:32:28;;;;;;;1.63;1.30;;;;;;;16.20;51.72;96922.59;4950133;28;20035;-79
2024/02/16 02:34:54;;;;;;;1.67;1.52;;;;;;;16.36;51.84;96927.63;4963028;28;20035;-79
2024/02/16 02:37:19;;;;;;;1.65;1.52;;;;;;;16.17;51.44;96917.16;4948016;28;20046;-78
2024/02/16 02:39:45;;;;;;;2.15;1.50;;;;;;;16.15;51.74;96927.16;4930662;28;20402;-78
2024/02/16 02:42:10;;;;;;;2.30;1.40;;;;;;;16.27;51.43;96928.25;4976169;28;20049;-78
2024/02/16 02:44:36;;;;;;;2.30;1.40;;;;;;;16.35;51.76;96918.16;4932439;28;20121;-79
2024/02/16 02:47:01;;;;;;;2.15;1.48;;;;;;;16.40;51.48;96926.75;4948559;28;20039;-78
2024/02/16 02:49:26;;;;;;;3.20;2.00;;;;;;;16.31;51.57;96927.69;4980791;28;20031;-78
2024/02/16 02:51:52;;;;;;;1.95;1.58;;;;;;;16.32;51.28;96926.66;4949634;28;20067;-78
2024/02/16 02:54:17;;;;;;;2.30;1.75;;;;;;;16.34;51.72;96921.88;4949052;28;20289;-78
2024/02/16 02:56:43;;;;;;;2.20;1.20;;;;;;;16.28;51.65;96927.22;4949059;28;20041;-78
2024/02/16 02:59:10;;;;;;;2.70;1.33;;;;;;;16.32;51.65;96935.28;4964938;28;20084;-79
2024/02/16 03:01:36;;;;;;;2.30;1.55;;;;;;;16.25;50.98;96919.91;4930622;28;20046;-78
2024/02/16 03:04:02;;;;;;;1.75;1.40;;;;;;;16.28;51.61;96913.31;4930743;28;20410;-79
2024/02/16 03:06:28;;;;;;;2.65;1.60;;;;;;;16.31;51.52;96931.09;4965863;28;20043;-78
2024/02/16 03:08:54;;;;;;;2.17;1.33;;;;;;;16.11;51.23;96926.97;4963010;28;20039;-79
2024/02/16 03:11:20;;;;;;;2.55;1.60;;;;;;;16.27;51.88;96938.78;4935435;28;20059;-78
2024/02/16 03:13:45;;;;;;;2.05;1.63;;;;;;;16.26;51.13;96931.97;4963771;28;20117;-78
2024/02/16 03:16:11;;;;;;;2.25;1.98;;;;;;;16.25;51.48;96932.25;4948838;28;20046;-78
2024/02/16 03:18:36;;;;;;;3.58;1.73;;;;;;;16.10;51.57;96923.53;4929662;29;20383;-78
2024/02/16 03:21:02;;;;;;;1.95;1.60;;;;;;;16.22;51.46;96936.22;4962246;28;20030;-78
2024/02/16 03:23:27;;;;;;;1.77;1.27;;;;;;;16.24;51.56;96928.84;4947493;28;20490;-79
2024/02/16 03:25:53;;;;;;;2.42;1.58;;;;;;;16.28;51.52;96932.47;4947012;28;20482;-79
2024/02/16 03:28:18;;;;;;;3.00;1.48;;;;;;;16.32;51.05;96930.03;4927723;28;20047;-78
2024/02/16 03:30:44;;;;;;;2.47;1.67;;;;;;;16.34;51.17;96932.38;4949261;28;20041;-78
2024/02/16 03:33:10;;;;;;;2.05;1.40;;;;;;;16.16;52.21;96932.13;4964517;28;20038;-78
2024/02/16 03:35:36;;;;;;;4.30;2.13;;;;;;;16.25;51.23;96930.41;4946048;28;20038;-78
2024/02/16 03:38:02;;;;;;;1.63;1.30;;;;;;;16.27;51.99;96930.91;4964669;28;20035;-79
2024/02/16 03:40:28;;;;;;;1.67;1.33;;;;;;;16.22;51.85;96936.22;4946661;28;20043;-78
2024/02/16 03:42:54;;;;;;;2.17;1.98;;;;;;;16.25;51.48;96929.63;4934754;28;20130;-79
2024/02/16 03:45:20;;;;;;;1.90;1.50;;;;;;;16.27;51.95;96928.25;4947428;28;20113;-83
2024/02/16 03:47:45;;;;;;;2.97;1.73;;;;;;;16.21;52.29;96929.44;4960608;28;20039;-84
2024/02/16 03:50:10;;;;;;;1.95;1.60;;;;;;;16.29;52.06;96934.00;4963598;28;20043;-84
2024/02/16 03:52:36;;;;;;;4.80;1.95;;;;;;;16.15;51.89;96935.81;4942799;28;20779;-82
2024/02/16 03:55:02;;;;;;;2.42;1.60;;;;;;;16.24;51.33;96936.72;4926330;28;20035;-82
2024/02/16 03:57:30;;;;;;;2.08;1.48;;;;;;;16.17;51.69;96931.06;4965599;28;20486;-84
2024/02/16 03:59:55;;;;;;;2.28;1.25;;;;;;;16.24;51.71;96934.09;4965604;28;20034;-87
2024/02/16 04:02:21;;;;;;;1.73;1.52;;;;;;;16.23;51.16;96937.03;4949330;28;20326;-82
2024/02/16 04:04:46;;;;;;;2.08;1.42;;;;;;;16.26;50.58;96937.22;4931153;28;20035;-84
2024/02/16 04:07:12;;;;;;;2.33;1.67;;;;;;;16.21;51.40;96936.50;5030953;28;20122;-85
2024/02/16 04:09:37;;;;;;;2.95;1.52;;;;;;;16.20;51.78;96937.59;4949164;28;20035;-83
2024/02/16 04:12:03;;;;;;;2.72;1.33;;;;;;;16.18;51.65;96939.72;4963458;28;20041;-84
2024/02/16 04:14:30;;;;;;;2.40;1.48;;;;;;;16.09;51.43;96936.94;4938546;28;20175;-83
2024/02/16 04:16:58;;;;;;;2.42;1.80;;;;;;;16.16;50.69;96934.75;4945377;28;20054;-84
2024/02/16 04:19:28;;;;;;;1.70;1.30;;;;;;;16.24;51.52;96949.06;4945532;28;20311;-84
2024/02/16 04:21:55;;;;;;;2.55;1.58;;;;;;;16.26;51.38;96937.22;4945872;28;20039;-83
2024/02/16 04:24:22;;;;;;;2.70;1.80;;;;;;;16.22;50.92;96940.72;4924370;28;20391;-83
2024/02/16 04:26:48;;;;;;;2.20;1.38;;;;;;;16.27;50.83;96938.00;4945466;28;20035;-84
2024/02/16 04:29:14;;;;;;;2.97;1.55;;;;;;;16.18;50.43;96945.75;4932788;28;20043;-84
2024/02/16 04:31:41;;;;;;;3.78;1.48;;;;;;;16.19;51.35;96943.91;4946701;28;20430;-83
2024/02/16 04:34:07;;;;;;;3.20;1.55;;;;;;;16.13;51.59;96948.47;4958789;28;20112;-83
2024/02/16 04:36:33;;;;;;;1.52;1.40;;;;;;;16.03;51.22;96948.59;4949388;28;20149;-83
2024/02/16 04:38:58;;;;;;;2.47;1.35;;;;;;;16.07;51.66;96949.59;4949506;28;20038;-83
2024/02/16 04:41:23;;;;;;;1.80;1.35;;;;;;;16.14;51.35;96949.22;4963953;28;20544;-84
2024/02/16 04:43:49;;;;;;;1.60;1.30;;;;;;;16.21;51.12;96949.66;4947000;28;20441;-81
2024/02/16 04:46:17;;;;;;;3.13;1.60;;;;;;;16.23;50.84;96940.44;4930148;28;20126;-83
2024/02/16 04:48:43;;;;;;;2.72;1.17;;;;;;;16.09;50.22;96944.81;4945064;28;20026;-83
2024/02/16 04:51:10;;;;;;;2.20;1.83;;;;;;;16.10;50.58;96946.41;4949075;28;20523;-84
2024/02/16 04:53:35;;;;;;;1.33;1.23;;;;;;;16.18;50.61;96935.25;4948499;28;20041;-83
2024/02/16 04:56:02;;;;;;;3.25;2.03;;;;;;;16.13;50.58;96945.06;4948073;28;20137;-85
2024/02/16 04:58:28;;;;;;;2.33;1.27;;;;;;;16.07;50.09;96939.88;4946597;28;20043;-84
2024/02/16 05:00:57;;;;;;;2.10;1.58;;;;;;;16.13;50.50;96947.69;4954494;28;20031;-83
2024/02/16 05:03:23;;;;;;;2.25;1.45;;;;;;;16.13;50.31;96948.47;4947955;28;20026;-83
2024/02/16 05:05:54;;;;;;;3.38;1.40;;;;;;;16.10;50.45;96949.78;4948393;28;20606;-84
2024/02/16 05:08:22;;;;;;;2.00;1.25;;;;;;;16.09;50.47;96957.97;4933626;28;20071;-84
2024/02/16 05:10:47;;;;;;;1.63;1.38;;;;;;;16.02;50.33;96958.34;4958936;28;20031;-85
2024/02/16 05:13:14;;;;;;;2.05;1.50;;;;;;;16.09;50.52;96957.97;4948823;28;20460;-83
2024/02/16 05:15:39;;;;;;;1.90;1.52;;;;;;;16.03;50.88;96964.38;4962637;28;20180;-83
2024/02/16 05:18:05;;;;;;;1.88;1.40;;;;;;;15.91;50.20;96957.69;4936022;28;20122;-84
2024/02/16 05:20:30;;;;;;;1.63;1.35;;;;;;;16.05;49.63;96973.50;4945629;28;20381;-84
2024/02/16 05:22:56;;;;;;;2.03;1.50;;;;;;;16.07;50.08;96966.16;5016514;28;20046;-84
2024/02/16 05:25:22;;;;;;;2.45;1.20;;;;;;;15.97;49.90;96965.50;5035124;28;20483;-85
2024/02/16 05:27:48;;;;;;;1.80;1.40;;;;;;;16.00;50.66;96962.31;4968634;28;20514;-82
2024/02/16 05:30:15;;;;;;;3.15;1.33;;;;;;;16.04;50.31;96971.97;4935756;28;20027;-83
2024/02/16 05:32:44;;;;;;;2.97;1.50;;;;;;;16.08;49.77;96967.69;4948190;28;20031;-82
2024/02/16 05:35:14;;;;;;;1.20;1.10;;;;;;;15.99;50.17;96979.09;4961521;28;20046;-82
2024/02/16 05:37:44;;;;;;;1.25;1.10;;;;;;;15.98;50.38;96967.06;5014692;28;20031;-84
2024/02/16 05:40:21;;;;;;;2.38;1.30;;;;;;;15.93;50.85;96969.75;4951971;28;20073;-84
2024/02/16 05:42:47;;;;;;;2.72;1.30;;;;;;;15.86;50.53;96968.25;4945722;28;20031;-84
2024/02/16 05:45:16;;;;;;;1.73;1.25;;;;;;;15.88;50.26;96973.22;4949589;28;20036;-84
2024/02/16 05:47:42;;;;;;;1.70;1.30;;;;;;;15.85;50.57;96981.66;4951333;28;20394;-84
2024/02/16 05:50:08;;;;;;;3.40;1.35;;;;;;;15.87;49.95;96972.44;4928017;28;20047;-82
2024/02/16 05:52:34;;;;;;;4.38;1.50;;;;;;;15.83;50.96;96968.81;4951905;28;20046;-83
2024/02/16 05:54:59;;;;;;;2.88;1.55;;;;;;;15.80;50.61;96969.41;4963510;28;20039;-83
2024/02/16 05:57:25;;;;;;;2.65;1.33;;;;;;;15.74;51.30;96970.50;4964202;28;20042;-82
2024/02/16 05:59:52;;;;;;;3.28;1.83;;;;;;;15.76;51.20;96971.00;4932522;28;20032;-80
2024/02/16 06:02:18;;;;;;;1.45;1.10;;;;;;;15.79;50.55;96967.81;4950181;28;20167;-82
2024/02/16 06:04:43;;;;;;;2.17;1.30;;;;;;;15.80;50.59;96969.41;4964772;28;20063;-84
2024/02/16 06:07:08;;;;;;;2.42;1.20;;;;;;;15.78;50.49;96968.91;5031280;28;20035;-78
2024/02/16 06:09:34;;;;;;;3.22;1.40;;;;;;;15.79;50.58;96973.06;4950570;28;20034;-78
2024/02/16 06:12:04;;;;;;;3.33;1.50;;;;;;;15.82;51.02;96969.91;4950206;28;20185;-78
2024/02/16 06:14:33;;;;;;;2.03;1.33;;;;;;;15.85;50.30;96974.59;4960073;28;20043;-78
2024/02/16 06:16:59;;;;;;;2.13;1.35;;;;;;;15.79;50.47;96980.94;4961552;28;20621;-79
2024/02/16 06:19:25;;;;;;;2.92;1.33;;;;;;;15.79;50.61;96980.19;4964967;28;20176;-79
2024/02/16 06:21:51;;;;;;;1.42;1.13;;;;;;;15.74;51.32;96981.00;4967821;28;20383;-78
2024/02/16 06:24:17;;;;;;;3.00;1.25;;;;;;;15.77;50.83;96982.31;4962820;28;20034;-78
2024/02/16 06:26:43;;;;;;;1.60;1.48;;;;;;;15.68;51.00;96979.50;4961471;28;20031;-79
2024/02/16 06:29:08;;;;;;;2.35;1.30;;;;;;;15.72;50.84;96991.00;4963888;28;20053;-79
2024/02/16 06:31:34;;;;;;;2.58;1.00;;;;;;;15.73;51.35;96987.31;4949388;28;20513;-79
2024/02/16 06:33:59;;;;;;;3.40;1.40;;;;;;;15.65;50.85;96985.31;4965570;28;20447;-79
2024/02/16 06:36:24;;;;;;;2.80;1.30;;;;;;;15.69;50.94;96989.69;4965316;28;20035;-79
2024/02/16 06:38:51;;;;;;;2.13;1.17;;;;;;;15.69;50.93;96994.94;4949394;28;20551;-79
2024/02/16 06:41:16;;;;;;;2.80;1.50;;;;;;;15.73;50.83;97000.44;4933500;28;20086;-79
2024/02/16 06:43:43;;;;;;;1.77;1.67;;;;;;;15.70;50.39;97007.03;4941528;28;20035;-78
2024/02/16 06:46:08;;;;;;;3.10;1.70;;;;;;;15.75;50.59;97008.84;4948470;28;20038;-79
2024/02/16 06:48:33;;;;;;;2.30;1.77;;;;;;;15.68;50.32;97017.03;4945261;28;20034;-78
2024/02/16 06:50:59;;;;;;;2.13;1.38;;;;;;;15.69;50.74;97013.31;4928956;29;20031;-79
2024/02/16 06:53:25;;;;;;;1.80;1.25;;;;;;;15.71;50.75;97020.91;5022114;28;20084;-79
2024/02/16 06:55:51;;;;;;;2.10;1.60;;;;;;;15.62;50.80;97027.88;4927851;29;20039;-79
2024/02/16 06:58:16;;;;;;;1.50;1.15;;;;;;;15.66;50.97;97026.22;4963259;28;20114;-79
2024/02/16 07:00:42;;;;;;;2.67;1.40;;;;;;;15.66;50.95;97034.91;4965560;28;20033;-79
2024/02/16 07:03:08;;;;;;;2.05;1.40;;;;;;;15.59;50.78;97038.91;4964828;28;20039;-78
2024/02/16 07:05:36;;;;;;;1.63;1.20;;;;;;;15.59;51.07;97041.53;4964327;28;20117;-78
2024/02/16 07:08:02;;;;;;;3.40;1.50;;;;;;;15.59;51.38;97044.16;5015935;28;20062;-78
2024/02/16 07:10:27;;;;;;;2.65;1.27;;;;;;;15.55;50.88;97044.72;4949811;28;20361;-79
2024/02/16 07:12:52;;;;;;;3.22;1.70;;;;;;;15.57;50.79;97046.28;4948557;28;20042;-79
2024/02/16 07:15:18;;;;;;;3.10;1.10;;;;;;;15.54;50.72;97043.16;4947757;28;20035;-83
2024/02/16 07:17:44;;;;;;;2.13;1.40;;;;;;;15.61;50.32;97044.66;4949740;28;20035;-84
2024/02/16 07:20:10;;;;;;;2.17;1.33;;;;;;;15.58;50.81;97047.88;4964155;28;20078;-83
2024/02/16 07:22:35;;;;;;;2.17;1.30;;;;;;;15.58;50.48;97053.13;4929629;28;20027;-85
2024/02/16 07:25:01;;;;;;;3.75;1.58;;;;;;;15.64;50.39;97058.00;4929109;28;20065;-85
2024/02/16 07:27:27;;;;;;;2.40;1.38;;;;;;;15.56;51.00;97058.63;4964953;28;20049;-82
2024/02/16 07:29:52;;;;;;;1.70;1.15;;;;;;;15.63;51.13;97055.69;4948919;28;20058;-82
2024/02/16 07:32:18;;;;;;;2.22;1.33;;;;;;;15.67;50.40;97052.19;4964613;28;20548;-84
2024/02/16 07:34:50;;;;;;;2.60;1.35;;;;;;;15.77;50.73;97051.34;4964527;28;20023;-83
2024/02/16 07:37:18;;;;;;;2.05;1.60;;;;;;;15.65;50.71;97059.56;4962936;28;20487;-83
2024/02/16 07:39:43;;;;;;;1.83;1.50;;;;;;;15.74;50.73;97065.00;4966139;28;20481;-81
2024/02/16 07:42:09;;;;;;;1.83;1.30;;;;;;;15.76;50.84;97056.88;4949165;28;20054;-84
2024/02/16 07:44:36;;;;;;;1.10;0.95;;;;;;;15.78;50.40;97073.13;4946496;28;20050;-84
2024/02/16 07:47:01;;;;;;;3.20;1.40;;;;;;;15.84;50.62;97070.16;4935049;28;20034;-81
2024/02/16 07:49:26;;;;;;;3.33;1.55;;;;;;;15.83;50.66;97065.19;4960861;28;20104;-85
2024/02/16 07:51:52;;;;;;;2.78;1.83;;;;;;;15.84;50.77;97072.00;4962703;28;20510;-83
2024/02/16 07:54:17;;;;;;;2.35;1.20;;;;;;;15.94;51.04;97079.75;4927234;28;20491;-85
2024/02/16 07:56:42;;;;;;;2.80;1.50;;;;;;;15.78;50.62;97073.91;4959059;28;20380;-83
2024/02/16 07:59:08;;;;;;;3.13;1.33;;;;;;;15.92;50.48;97074.00;4948457;28;20027;-83
2024/02/16 08:01:33;;;;;;;1.90;1.70;;;;;;;15.90;50.78;97082.16;4949534;28;20058;-84
2024/02/16 08:03:59;;;;;;;1.40;1.20;;;;;;;15.82;51.51;97074.13;4927103;28;20031;-84
2024/02/16 08:06:26;;;;;;;1.83;1.45;;;;;;;15.87;50.21;97082.72;4980930;28;20038;-84
2024/02/16 08:08:52;;;;;;;1.80;1.50;;;;;;;15.80;51.20;97084.09;4956700;28;20037;-83
2024/02/16 08:11:18;;;;;;;2.28;1.42;;;;;;;15.85;50.85;97078.81;4967306;28;20031;-85
2024/02/16 08:13:43;;;;;;;2.25;1.20;;;;;;;15.84;50.51;97091.16;4964451;28;20533;-85
2024/02/16 08:16:08;;;;;;;3.45;1.48;;;;;;;15.79;51.44;97085.97;4947447;28;20046;-86
2024/02/16 08:18:34;;;;;;;1.70;1.05;;;;;;;15.80;51.32;97084.09;4950366;28;20037;-85
2024/02/16 08:21:00;;;;;;;1.95;1.75;;;;;;;15.79;50.97;97090.44;4949374;28;20073;-85
2024/02/16 08:23:25;;;;;;;2.63;1.50;;;;;;;15.79;50.83;97091.22;4947727;28;20074;-84
2024/02/16 08:25:51;;;;;;;2.92;1.63;;;;;;;15.81;51.14;97090.94;4949648;28;20558;-79
2024/02/16 08:28:16;;;;;;;1.83;1.65;;;;;;;15.84;51.75;97099.03;4963803;28;20550;-78
2024/02/16 08:30:43;;;;;;;2.38;1.20;;;;;;;15.77;51.44;97103.06;4965242;28;20471;-78
2024/02/16 08:33:10;;;;;;;2.78;1.35;;;;;;;15.79;51.40;97101.72;4948146;28;20045;-78
2024/02/16 08:35:35;;;;;;;1.55;1.23;;;;;;;15.77;51.28;97101.22;4936272;28;20316;-79
2024/02/16 08:38:01;;;;;;;3.25;1.42;;;;;;;15.82;50.82;97111.66;5012527;28;20049;-80
2024/02/16 08:40:26;;;;;;;1.50;1.40;;;;;;;15.86;51.61;97109.25;4958023;28;20038;-79
2024/02/16 08:42:51;;;;;;;2.35;1.60;;;;;;;15.86;51.67;97110.03;4958236;28;20034;-79
2024/02/16 08:45:17;;;;;;;1.77;1.30;;;;;;;15.82;51.92;97113.50;4935180;28;20036;-79
2024/02/16 08:47:43;;;;;;;2.90;1.67;;;;;;;15.79;52.08;97108.81;4951174;28;20084;-78
2024/02/16 08:50:09;;;;;;;2.95;1.65;;;;;;;15.79;51.81;97114.84;4959855;28;20070;-78
2024/02/16 08:52:34;;;;;;;2.00;1.80;;;;;;;15.85;52.16;97115.56;4963326;28;20074;-79
2024/02/16 08:55:00;;;;;;;2.28;1.58;;;;;;;15.87;51.75;97121.34;5032643;28;20039;-78
2024/02/16 08:57:26;;;;;;;1.95;1.33;;;;;;;15.86;52.00;97120.53;4935755;28;20079;-78
2024/02/16 08:59:52;;;;;;;3.33;1.67;;;;;;;15.92;51.53;97126.53;4966223;28;20027;-79
2024/02/16 09:02:17;;;;;;;3.28;1.60;;;;;;;15.81;52.57;97125.84;4935358;28;20038;-78
2024/02/16 09:04:43;;;;;;;4.72;1.52;;;;;;;15.86;52.14;97122.38;4947610;28;20027;-79
2024/02/16 09:07:09;;;;;;;2.92;1.48;;;;;;;15.85;52.47;97128.69;4964918;28;20039;-78
2024/02/16 09:09:34;;;;;;;2.33;1.85;;;;;;;15.85;52.33;97126.88;4952148;28;20031;-79
2024/02/16 09:11:59;;;;;;;3.35;1.60;;;;;;;15.82;52.99;97131.88;4968556;28;20487;-78
2024/02/16 09:14:24;;;;;;;3.97;1.42;;;;;;;15.78;52.51;97121.16;4951180;28;20043;-78
2024/02/16 09:16:53;;;;;;;2.03;1.50;;;;;;;15.80;52.63;97128.75;4951308;28;20127;-79
2024/02/16 09:19:19;;;;;;;2.33;1.42;;;;;;;15.79;52.94;97133.22;4951735;28;20710;-78
2024/02/16 09:21:45;;;;;;;2.22;1.60;;;;;;;15.91;52.36;97138.09;4967893;28;20513;-78
2024/02/16 09:24:17;;;;;;;3.30;1.77;;;;;;;15.77;52.49;97137.97;4965375;28;20629;-77
2024/02/16 09:26:42;;;;;;;3.22;1.52;;;;;;;15.79;52.19;97146.34;4967559;28;20400;-79
2024/02/16 09:29:08;;;;;;;2.30;1.60;;;;;;;15.86;52.22;97138.91;4946395;28;20035;-79
2024/02/16 09:31:33;;;;;;;2.97;1.90;;;;;;;15.85;52.48;97147.88;4950941;28;20485;-79
2024/02/16 09:33:58;;;;;;;4.30;1.70;;;;;;;15.96;52.50;97148.53;4950576;28;20042;-78
2024/02/16 09:36:24;;;;;;;4.85;1.77;;;;;;;16.01;52.85;97150.31;4964699;28;20041;-81
2024/02/16 09:38:50;;;;;;;4.53;2.00;;;;;;;16.03;51.83;97148.19;4965589;28;20035;-83
2024/02/16 09:41:16;;;;;;;1.85;1.60;;;;;;;16.08;51.85;97150.78;4943270;28;20032;-84
2024/02/16 09:43:42;;;;;;;3.78;1.92;;;;;;;16.23;52.42;97153.22;4967697;28;20440;-83
2024/02/16 09:46:08;;;;;;;4.32;1.63;;;;;;;16.07;51.62;97146.56;4967891;28;20081;-83
2024/02/16 09:48:34;;;;;;;2.83;1.88;;;;;;;16.37;52.07;97152.53;4967938;28;20043;-84
2024/02/16 09:50:59;;;;;;;2.13;1.92;;;;;;;16.50;52.59;97161.56;4932641;29;20054;-82
2024/02/16 09:53:27;;;;;;;3.55;2.00;;;;;;;16.65;51.37;97159.50;5018718;28;20034;-84
2024/02/16 09:55:52;;;;;;;2.72;1.42;;;;;;;16.68;50.69;97152.91;5051838;28;20030;-83
2024/02/16 09:58:18;;;;;;;2.15;1.60;;;;;;;16.80;51.28;97149.84;5051937;28;20507;-85
2024/02/16 10:00:57;;;;;;;2.97;1.73;;;;;;;16.91;51.05;97161.03;4962817;28;20445;-83
2024/02/16 10:03:29;;;;;;;4.53;1.98;;;;;;;17.04;50.47;97165.56;4950924;28;20030;-84
2024/02/16 10:06:09;;;;;;;3.35;1.65;;;;;;;17.06;51.28;97160.81;4982731;28;20038;-85
2024/02/16 10:08:35;;;;;;;2.58;2.05;;;;;;;16.73;51.72;97159.94;5026212;28;20043;-85
2024/02/16 10:11:04;;;;;;;2.83;1.85;;;;;;;16.90;51.01;97167.38;4934231;28;20041;-83
2024/02/16 10:13:31;;;;;;;1.95;1.60;;;;;;;17.10;49.50;97166.28;4955765;28;20398;-83
2024/02/16 10:16:08;;;;;;;3.80;2.13;;;;;;;17.45;50.42;97174.69;4967409;28;20039;-83
2024/02/16 10:18:35;;;;;;;2.70;1.83;;;;;;;17.33;50.16;97178.53;4952537;28;20041;-86
2024/02/16 10:21:00;;;;;;;3.60;1.85;;;;;;;17.45;49.29;97178.09;4925411;28;20402;-84
2024/02/16 10:23:26;;;;;;;3.40;1.52;;;;;;;17.37;50.26;97189.28;4966572;28;20043;-86
2024/02/16 10:25:51;;;;;;;2.20;1.92;;;;;;;17.57;49.53;97191.56;4966899;28;20107;-83
2024/02/16 10:28:17;;;;;;;2.60;1.73;;;;;;;17.44;49.57;97181.00;4963145;28;20039;-82
2024/02/16 10:30:43;;;;;;;2.90;1.70;;;;;;;17.66;49.80;97199.59;4937769;28;20487;-85
2024/02/16 10:33:09;;;;;;;2.35;1.65;;;;;;;17.78;48.61;97192.00;4948898;28;20045;-83
2024/02/16 10:35:35;;;;;;;2.15;1.50;;;;;;;17.70;48.91;97191.88;4959787;28;20038;-83
2024/02/16 10:38:04;;;;;;;2.63;1.85;;;;;;;17.92;48.21;97199.16;5023139;28;20577;-84
2024/02/16 10:40:32;;;;;;;2.55;1.73;;;;;;;17.72;48.75;97190.53;4948935;28;20027;-82
2024/02/16 10:43:03;;;;;;;1.88;1.52;;;;;;;17.96;49.14;97192.28;5017213;28;20426;-83
2024/02/16 10:45:32;;;;;;;2.20;1.98;;;;;;;17.91;49.21;97202.91;4944008;28;20038;-78
2024/02/16 10:47:58;;;;;;;4.22;1.90;;;;;;;18.05;47.87;97197.63;4949268;28;20043;-79
2024/02/16 10:50:26;;;;;;;2.50;1.75;;;;;;;18.34;47.53;97206.03;4965303;28;20050;-79
2024/02/16 10:52:53;;;;;;;3.00;1.90;;;;;;;18.40;47.73;97211.97;4948706;28;20104;-79
2024/02/16 10:55:19;;;;;;;5.07;1.90;;;;;;;18.44;47.46;97217.44;4966137;28;20092;-81
2024/02/16 10:57:44;;;;;;;3.05;1.60;;;;;;;18.13;49.32;97203.00;4950545;28;20050;-79
2024/02/16 11:00:14;;;;;;;3.55;1.92;;;;;;;18.44;48.41;97210.31;4949720;28;20105;-79
2024/02/16 11:02:55;;;;;;;3.53;2.15;;;;;;;18.29;48.36;97219.31;4965690;28;20562;-80
2024/02/16 11:05:31;;;;;;;4.70;2.20;;;;;;;18.45;47.38;97214.50;4949660;28;20046;-79
2024/02/16 11:08:01;;;;;;;2.30;1.88;;;;;;;18.52;47.44;97217.56;4963502;28;20045;-78
2024/02/16 11:10:27;;;;;;;2.22;1.60;;;;;;;18.42;47.38;97215.13;4934943;28;20569;-79
2024/02/16 11:12:55;;;;;;;2.85;1.80;;;;;;;18.46;48.26;97217.94;4941192;28;20043;-79
2024/02/16 11:15:35;;;;;;;5.43;2.42;;;;;;;18.50;48.72;97221.53;4966081;28;20035;-80
2024/02/16 11:18:02;;;;;;;1.80;1.70;;;;;;;18.53;47.51;97227.00;4963565;28;20231;-80
2024/02/16 11:20:27;;;;;;;3.45;1.92;;;;;;;18.45;48.46;97229.56;4949256;28;20117;-80
2024/02/16 11:22:53;;;;;;;3.05;1.67;;;;;;;18.44;48.63;97220.88;4964499;28;20142;-79
2024/02/16 11:25:20;;;;;;;2.42;1.90;;;;;;;18.60;48.74;97223.97;4948819;28;20513;-79
2024/02/16 11:27:47;;;;;;;4.20;2.15;;;;;;;18.35;48.15;97227.88;4950034;28;20041;-78
2024/02/16 11:30:12;;;;;;;3.70;2.28;;;;;;;18.37;49.40;97212.59;4945855;28;20501;-78